Time,TemperatureF,DewpointF,PressureIn,WindDirection,WindDirectionDegrees,WindSpeedMPH,WindSpeedGustMPH,Humidity,HourlyPrecipIn,Conditions,Clouds,dailyrainin,SoftwareType,DateUTC
2013-09-25 00:00:00,50.4,48.5,29.85,East,88,0.0,0.0,93,0.00,,---,0.00,VWS V14.00,2013-09-25 05:00:00,
2013-09-25 00:02:00,50.3,48.1,29.86,East,88,0.0,0.0,92,0.00,,---,0.00,VWS V14.00,2013-09-25 05:02:00,
2013-09-25 00:05:00,50.2,48.3,29.85,East,88,0.0,0.0,93,0.00,,---,0.00,VWS V14.00,2013-09-25 05:05:00,
2013-09-25 00:07:00,50.2,48.3,29.86,East,87,0.0,0.0,93,0.00,,---,0.00,VWS V14.00,2013-09-25 05:07:00,
2013-09-25 00:10:00,50.1,48.2,29.86,East,88,0.0,0.0,93,0.00,,---,0.00,VWS V14.00,2013-09-25 05:10:00,
2013-09-25 00:12:00,49.9,48.0,29.85,East,88,0.0,0.0,93,0.00,,---,0.00,VWS V14.00,2013-09-25 05:12:00,
2013-09-25 00:15:00,49.7,47.8,29.85,East,87,0.0,0.0,93,0.00,,---,0.00,VWS V14.00,2013-09-25 05:15:00,
2013-09-25 00:17:00,49.6,47.7,29.85,East,88,0.0,0.0,93,0.00,,---,0.00,VWS V14.00,2013-09-25 05:17:00,
2013-09-25 00:20:00,49.7,47.8,29.85,East,88,0.0,0.0,93,0.00,,---,0.00,VWS V14.00,2013-09-25 05:20:00,
2013-09-25 00:22:00,49.7,47.8,29.85,East,88,0.0,0.0,93,0.00,,---,0.00,VWS V14.00,2013-09-25 05:22:00,
2013-09-25 00:25:00,49.7,47.8,29.86,East,88,0.0,0.0,93,0.00,,---,0.00,VWS V14.00,2013-09-25 05:25:00,
2013-09-25 00:27:00,49.6,47.7,29.85,East,87,0.0,0.0,93,0.00,,---,0.00,VWS V14.00,2013-09-25 05:27:00,
2013-09-25 00:30:00,49.5,47.6,29.85,East,88,0.0,0.0,93,0.00,,---,0.00,VWS V14.00,2013-09-25 05:30:00,
2013-09-25 00:32:00,49.3,47.4,29.86,East,88,0.0,0.0,93,0.00,,---,0.00,VWS V14.00,2013-09-25 05:32:00,
2013-09-25 00:35:00,49.1,47.2,29.86,East,87,0.0,0.0,93,0.00,,---,0.00,VWS V14.00,2013-09-25 05:35:00,
2013-09-25 00:37:00,49.0,47.1,29.86,East,87,0.0,0.0,93,0.00,,---,0.00,VWS V14.00,2013-09-25 05:37:00,
2013-09-25 00:40:00,48.9,47.0,29.86,East,87,0.0,1.0,93,0.00,,---,0.00,VWS V14.00,2013-09-25 05:40:00,
2013-09-25 00:42:00,49.0,47.3,29.86,East,88,0.0,0.0,94,0.00,,---,0.00,VWS V14.00,2013-09-25 05:42:00,
2013-09-25 00:45:00,49.1,47.5,29.86,East,88,0.0,0.0,94,0.00,,---,0.00,VWS V14.00,2013-09-25 05:45:00,
2013-09-25 00:47:00,49.1,47.5,29.86,East,88,0.0,0.0,94,0.00,,---,0.00,VWS V14.00,2013-09-25 05:47:00,
2013-09-25 00:50:00,49.1,47.5,29.86,East,88,0.0,0.0,94,0.00,,---,0.00,VWS V14.00,2013-09-25 05:50:00,
2013-09-25 00:52:00,49.1,47.5,29.86,East,88,0.0,0.0,94,0.00,,---,0.00,VWS V14.00,2013-09-25 05:52:00,
2013-09-25 00:55:00,49.0,47.3,29.86,East,88,0.0,0.0,94,0.00,,---,0.00,VWS V14.00,2013-09-25 05:55:00,
2013-09-25 00:57:00,48.9,47.2,29.86,East,88,0.0,0.0,94,0.00,,---,0.00,VWS V14.00,2013-09-25 05:57:00,
2013-09-25 01:00:00,48.7,47.0,29.85,East,88,0.0,0.0,94,0.00,,---,0.00,VWS V14.00,2013-09-25 06:00:00,
2013-09-25 01:02:00,48.4,46.8,29.86,East,87,0.0,0.0,94,0.00,,---,0.00,VWS V14.00,2013-09-25 06:02:00,
2013-09-25 01:05:00,48.4,46.8,29.86,East,88,0.0,0.0,94,0.00,,---,0.00,VWS V14.00,2013-09-25 06:05:00,
2013-09-25 01:07:00,48.3,46.7,29.85,East,88,0.0,0.0,94,0.00,,---,0.00,VWS V14.00,2013-09-25 06:07:00,
2013-09-25 01:10:00,48.3,46.7,29.85,East,87,0.0,0.0,94,0.00,,---,0.00,VWS V14.00,2013-09-25 06:10:00,
2013-09-25 01:12:00,48.2,46.6,29.85,East,87,0.0,0.0,94,0.00,,---,0.00,VWS V14.00,2013-09-25 06:12:00,
2013-09-25 01:15:00,48.1,46.5,29.85,East,88,0.0,0.0,94,0.00,,---,0.00,VWS V14.00,2013-09-25 06:15:00,
2013-09-25 01:17:00,47.9,46.3,29.85,East,88,0.0,0.0,94,0.00,,---,0.00,VWS V14.00,2013-09-25 06:17:00,
2013-09-25 01:20:00,47.9,46.3,29.85,East,88,0.0,0.0,94,0.00,,---,0.00,VWS V14.00,2013-09-25 06:20:00,
2013-09-25 01:23:00,47.7,46.1,29.85,East,88,0.0,0.0,94,0.00,,---,0.00,VWS V14.00,2013-09-25 06:23:00,
2013-09-25 01:25:00,47.7,46.1,29.85,East,88,0.0,0.0,94,0.00,,---,0.00,VWS V14.00,2013-09-25 06:25:00,
2013-09-25 01:28:00,47.6,46.0,29.85,East,88,0.0,0.0,94,0.00,,---,0.00,VWS V14.00,2013-09-25 06:28:00,
2013-09-25 01:30:00,47.5,45.9,29.86,East,87,0.0,0.0,94,0.00,,---,0.00,VWS V14.00,2013-09-25 06:30:00,
2013-09-25 01:33:00,47.4,45.8,29.86,East,87,0.0,0.0,94,0.00,,---,0.00,VWS V14.00,2013-09-25 06:33:00,
2013-09-25 01:35:00,47.5,46.1,29.86,East,80,0.0,0.0,95,0.00,,---,0.00,VWS V14.00,2013-09-25 06:35:00,
2013-09-25 01:38:00,47.9,46.5,29.86,East,80,0.0,0.0,95,0.00,,---,0.00,VWS V14.00,2013-09-25 06:38:00,
2013-09-25 01:40:00,48.0,46.6,29.85,East,80,0.0,0.0,95,0.00,,---,0.00,VWS V14.00,2013-09-25 06:40:00,
2013-09-25 01:43:00,48.4,47.0,29.85,East,80,0.0,1.0,95,0.00,,---,0.00,VWS V14.00,2013-09-25 06:43:00,
2013-09-25 01:45:00,48.5,47.4,29.85,East,80,0.0,1.0,96,0.00,,---,0.00,VWS V14.00,2013-09-25 06:45:00,
2013-09-25 01:48:00,48.4,47.0,29.85,East,80,0.0,0.0,95,0.00,,---,0.00,VWS V14.00,2013-09-25 06:48:00,
2013-09-25 01:50:00,48.3,46.9,29.85,East,80,0.0,0.0,95,0.00,,---,0.00,VWS V14.00,2013-09-25 06:50:00,
2013-09-25 01:53:00,48.1,46.7,29.85,East,80,0.0,0.0,95,0.00,,---,0.00,VWS V14.00,2013-09-25 06:53:00,
2013-09-25 01:55:00,48.0,46.6,29.85,East,80,0.0,0.0,95,0.00,,---,0.00,VWS V14.00,2013-09-25 06:55:00,
2013-09-25 01:58:00,47.7,46.3,29.85,East,80,0.0,0.0,95,0.00,,---,0.00,VWS V14.00,2013-09-25 06:58:00,
2013-09-25 02:00:00,47.7,46.3,29.85,East,80,0.0,0.0,95,0.00,,---,0.00,VWS V14.00,2013-09-25 07:00:00,
2013-09-25 02:03:00,47.4,46.0,29.86,East,80,0.0,0.0,95,0.00,,---,0.00,VWS V14.00,2013-09-25 07:03:00,
2013-09-25 02:05:00,47.3,45.9,29.85,East,80,0.0,0.0,95,0.00,,---,0.00,VWS V14.00,2013-09-25 07:05:00,
2013-09-25 02:08:00,47.1,45.7,29.86,East,80,0.0,0.0,95,0.00,,---,0.00,VWS V14.00,2013-09-25 07:08:00,
2013-09-25 02:10:00,47.1,45.7,29.86,East,80,0.0,0.0,95,0.00,,---,0.00,VWS V14.00,2013-09-25 07:10:00,
2013-09-25 02:13:00,47.0,45.7,29.85,East,80,0.0,0.0,95,0.00,,---,0.00,VWS V14.00,2013-09-25 07:13:00,
2013-09-25 02:15:00,46.9,45.5,29.85,East,80,0.0,0.0,95,0.00,,---,0.00,VWS V14.00,2013-09-25 07:15:00,
2013-09-25 02:18:00,46.8,45.5,29.86,East,80,0.0,0.0,95,0.00,,---,0.00,VWS V14.00,2013-09-25 07:18:00,
2013-09-25 02:20:00,46.8,45.5,29.86,East,80,0.0,0.0,95,0.00,,---,0.00,VWS V14.00,2013-09-25 07:20:00,
2013-09-25 02:23:00,46.9,45.5,29.85,East,80,0.0,0.0,95,0.00,,---,0.00,VWS V14.00,2013-09-25 07:23:00,
2013-09-25 02:25:00,46.9,45.5,29.85,East,80,0.0,0.0,95,0.00,,---,0.00,VWS V14.00,2013-09-25 07:25:00,
2013-09-25 02:28:00,46.9,45.5,29.85,East,80,0.0,0.0,95,0.00,,---,0.00,VWS V14.00,2013-09-25 07:28:00,
2013-09-25 02:30:00,46.9,45.5,29.85,East,80,0.0,0.0,95,0.00,,---,0.00,VWS V14.00,2013-09-25 07:30:00,
2013-09-25 02:33:00,46.7,45.3,29.85,East,80,0.0,0.0,95,0.00,,---,0.00,VWS V14.00,2013-09-25 07:33:00,
2013-09-25 02:35:00,46.7,45.3,29.85,East,80,0.0,0.0,95,0.00,,---,0.00,VWS V14.00,2013-09-25 07:35:00,
2013-09-25 02:38:00,46.5,45.2,29.85,East,80,0.0,0.0,95,0.00,,---,0.00,VWS V14.00,2013-09-25 07:38:00,
2013-09-25 02:40:00,46.5,45.2,29.85,East,80,0.0,0.0,95,0.00,,---,0.00,VWS V14.00,2013-09-25 07:40:00,
2013-09-25 02:43:00,46.4,45.0,29.86,East,80,0.0,0.0,95,0.00,,---,0.00,VWS V14.00,2013-09-25 07:43:00,
2013-09-25 02:45:00,46.4,45.0,29.86,East,80,0.0,0.0,95,0.00,,---,0.00,VWS V14.00,2013-09-25 07:45:00,
2013-09-25 02:48:00,46.3,45.0,29.86,East,80,0.0,0.0,95,0.00,,---,0.00,VWS V14.00,2013-09-25 07:48:00,
2013-09-25 02:50:00,46.3,45.0,29.86,East,80,0.0,0.0,95,0.00,,---,0.00,VWS V14.00,2013-09-25 07:50:00,
2013-09-25 02:53:00,46.2,44.8,29.86,East,80,0.0,0.0,95,0.00,,---,0.00,VWS V14.00,2013-09-25 07:53:00,
2013-09-25 02:55:00,46.2,44.8,29.86,East,80,0.0,0.0,95,0.00,,---,0.00,VWS V14.00,2013-09-25 07:55:00,
2013-09-25 02:58:00,46.1,44.8,29.86,East,80,0.0,0.0,95,0.00,,---,0.00,VWS V14.00,2013-09-25 07:58:00,
2013-09-25 03:00:00,46.1,44.8,29.86,East,80,0.0,0.0,95,0.00,,---,0.00,VWS V14.00,2013-09-25 08:00:00,
2013-09-25 03:03:00,46.2,45.1,29.86,East,80,0.0,0.0,96,0.00,,---,0.00,VWS V14.00,2013-09-25 08:03:00,
2013-09-25 03:05:00,46.2,45.1,29.86,East,80,0.0,0.0,96,0.00,,---,0.00,VWS V14.00,2013-09-25 08:05:00,
2013-09-25 03:08:00,46.3,45.2,29.86,East,80,0.0,0.0,96,0.00,,---,0.00,VWS V14.00,2013-09-25 08:08:00,
2013-09-25 03:10:00,46.2,45.1,29.86,East,80,0.0,0.0,96,0.00,,---,0.00,VWS V14.00,2013-09-25 08:10:00,
2013-09-25 03:13:00,46.2,45.1,29.86,East,80,0.0,0.0,96,0.00,,---,0.00,VWS V14.00,2013-09-25 08:13:00,
2013-09-25 03:15:00,46.2,45.1,29.86,East,80,0.0,0.0,96,0.00,,---,0.00,VWS V14.00,2013-09-25 08:15:00,
2013-09-25 03:18:00,46.1,45.0,29.86,East,80,0.0,0.0,96,0.00,,---,0.00,VWS V14.00,2013-09-25 08:18:00,
2013-09-25 03:20:00,46.1,44.8,29.86,East,80,0.0,0.0,95,0.00,,---,0.00,VWS V14.00,2013-09-25 08:20:00,
2013-09-25 03:23:00,45.9,44.8,29.86,East,80,0.0,0.0,96,0.00,,---,0.00,VWS V14.00,2013-09-25 08:23:00,
2013-09-25 03:25:00,45.9,44.8,29.86,East,80,0.0,0.0,96,0.00,,---,0.00,VWS V14.00,2013-09-25 08:25:00,
2013-09-25 03:28:00,45.9,44.8,29.85,East,80,0.0,0.0,96,0.00,,---,0.00,VWS V14.00,2013-09-25 08:28:00,
2013-09-25 03:30:00,45.9,44.8,29.85,East,80,0.0,0.0,96,0.00,,---,0.00,VWS V14.00,2013-09-25 08:30:00,
2013-09-25 03:33:00,45.8,44.5,29.85,East,80,0.0,0.0,95,0.00,,---,0.00,VWS V14.00,2013-09-25 08:33:00,
2013-09-25 03:35:00,45.8,44.5,29.85,East,80,0.0,0.0,95,0.00,,---,0.00,VWS V14.00,2013-09-25 08:35:00,
2013-09-25 03:38:00,45.4,44.0,29.85,East,80,0.0,0.0,95,0.00,,---,0.00,VWS V14.00,2013-09-25 08:38:00,
2013-09-25 03:40:00,45.4,44.0,29.85,East,80,0.0,0.0,95,0.00,,---,0.00,VWS V14.00,2013-09-25 08:40:00,
2013-09-25 03:44:00,45.0,43.7,29.85,East,80,0.0,0.0,95,0.00,,---,0.00,VWS V14.00,2013-09-25 08:44:00,
2013-09-25 03:45:00,45.0,43.7,29.85,East,80,0.0,0.0,95,0.00,,---,0.00,VWS V14.00,2013-09-25 08:45:00,
2013-09-25 03:49:00,44.7,43.4,29.85,East,80,0.0,0.0,95,0.00,,---,0.00,VWS V14.00,2013-09-25 08:49:00,
2013-09-25 03:50:00,44.7,43.4,29.85,East,80,0.0,0.0,95,0.00,,---,0.00,VWS V14.00,2013-09-25 08:50:00,
2013-09-25 03:54:00,44.6,43.3,29.85,East,80,0.0,0.0,95,0.00,,---,0.00,VWS V14.00,2013-09-25 08:54:00,
2013-09-25 03:55:00,44.6,43.3,29.85,East,80,0.0,0.0,95,0.00,,---,0.00,VWS V14.00,2013-09-25 08:55:00,
2013-09-25 03:59:00,44.6,43.5,29.85,East,80,0.0,0.0,96,0.00,,---,0.00,VWS V14.00,2013-09-25 08:59:00,
2013-09-25 04:00:00,44.6,43.5,29.85,East,80,0.0,0.0,96,0.00,,---,0.00,VWS V14.00,2013-09-25 09:00:00,
2013-09-25 04:04:00,44.9,43.8,29.86,East,80,0.0,0.0,96,0.00,,---,0.00,VWS V14.00,2013-09-25 09:04:00,
2013-09-25 04:05:00,44.9,43.8,29.86,East,80,0.0,0.0,96,0.00,,---,0.00,VWS V14.00,2013-09-25 09:05:00,
2013-09-25 04:09:00,45.1,44.0,29.86,East,80,0.0,0.0,96,0.00,,---,0.00,VWS V14.00,2013-09-25 09:09:00,
2013-09-25 04:10:00,45.1,44.0,29.86,East,80,0.0,0.0,96,0.00,,---,0.00,VWS V14.00,2013-09-25 09:10:00,
2013-09-25 04:14:00,45.0,43.9,29.86,East,80,0.0,0.0,96,0.00,,---,0.00,VWS V14.00,2013-09-25 09:14:00,
2013-09-25 04:15:00,45.0,43.9,29.86,East,80,0.0,0.0,96,0.00,,---,0.00,VWS V14.00,2013-09-25 09:15:00,
2013-09-25 04:19:00,45.0,43.9,29.86,East,80,0.0,0.0,96,0.00,,---,0.00,VWS V14.00,2013-09-25 09:19:00,
2013-09-25 04:20:00,45.0,43.9,29.86,East,80,0.0,0.0,96,0.00,,---,0.00,VWS V14.00,2013-09-25 09:20:00,
2013-09-25 04:24:00,45.0,43.9,29.86,East,80,0.0,0.0,96,0.00,,---,0.00,VWS V14.00,2013-09-25 09:24:00,
2013-09-25 04:25:00,44.9,43.8,29.86,East,80,0.0,0.0,96,0.00,,---,0.00,VWS V14.00,2013-09-25 09:25:00,
2013-09-25 04:29:00,44.9,43.8,29.87,East,80,0.0,0.0,96,0.00,,---,0.00,VWS V14.00,2013-09-25 09:29:00,
2013-09-25 04:30:00,44.9,43.8,29.87,East,80,0.0,0.0,96,0.00,,---,0.00,VWS V14.00,2013-09-25 09:30:00,
2013-09-25 04:34:00,44.9,43.8,29.86,East,80,0.0,0.0,96,0.00,,---,0.00,VWS V14.00,2013-09-25 09:34:00,
2013-09-25 04:35:00,44.9,43.8,29.86,East,80,0.0,0.0,96,0.00,,---,0.00,VWS V14.00,2013-09-25 09:35:00,
2013-09-25 04:39:00,44.8,43.7,29.87,East,80,0.0,0.0,96,0.00,,---,0.00,VWS V14.00,2013-09-25 09:39:00,
2013-09-25 04:40:00,44.8,43.7,29.87,East,80,0.0,0.0,96,0.00,,---,0.00,VWS V14.00,2013-09-25 09:40:00,
2013-09-25 04:44:00,44.7,43.6,29.87,East,80,0.0,0.0,96,0.00,,---,0.00,VWS V14.00,2013-09-25 09:44:00,
2013-09-25 04:45:00,44.7,43.6,29.87,East,80,0.0,0.0,96,0.00,,---,0.00,VWS V14.00,2013-09-25 09:45:00,
2013-09-25 04:49:00,44.7,43.6,29.87,East,80,0.0,0.0,96,0.00,,---,0.00,VWS V14.00,2013-09-25 09:49:00,
2013-09-25 04:50:00,44.7,43.6,29.87,East,80,0.0,0.0,96,0.00,,---,0.00,VWS V14.00,2013-09-25 09:50:00,
2013-09-25 04:54:00,44.5,43.4,29.87,East,80,0.0,0.0,96,0.00,,---,0.00,VWS V14.00,2013-09-25 09:54:00,
2013-09-25 04:55:00,44.5,43.4,29.87,East,80,0.0,0.0,96,0.00,,---,0.00,VWS V14.00,2013-09-25 09:55:00,
2013-09-25 04:59:00,44.4,43.3,29.87,East,80,0.0,0.0,96,0.00,,---,0.00,VWS V14.00,2013-09-25 09:59:00,
2013-09-25 05:00:00,44.4,43.3,29.87,East,80,0.0,0.0,96,0.00,,---,0.00,VWS V14.00,2013-09-25 10:00:00,
2013-09-25 05:04:00,44.4,43.3,29.87,East,80,0.0,0.0,96,0.00,,---,0.00,VWS V14.00,2013-09-25 10:04:00,
2013-09-25 05:05:00,44.4,43.3,29.87,East,80,0.0,0.0,96,0.00,,---,0.00,VWS V14.00,2013-09-25 10:05:00,
2013-09-25 05:09:00,44.4,43.3,29.87,East,80,0.0,0.0,96,0.00,,---,0.00,VWS V14.00,2013-09-25 10:09:00,
2013-09-25 05:10:00,44.4,43.3,29.87,East,80,0.0,0.0,96,0.00,,---,0.00,VWS V14.00,2013-09-25 10:10:00,
2013-09-25 05:14:00,44.6,43.5,29.87,East,80,0.0,0.0,96,0.00,,---,0.00,VWS V14.00,2013-09-25 10:14:00,
2013-09-25 05:15:00,44.6,43.5,29.87,East,80,0.0,0.0,96,0.00,,---,0.00,VWS V14.00,2013-09-25 10:15:00,
2013-09-25 05:19:00,44.6,43.5,29.87,East,80,0.0,0.0,96,0.00,,---,0.00,VWS V14.00,2013-09-25 10:19:00,
2013-09-25 05:20:00,44.6,43.5,29.87,East,80,0.0,0.0,96,0.00,,---,0.00,VWS V14.00,2013-09-25 10:20:00,
2013-09-25 05:24:00,44.5,43.4,29.87,East,80,0.0,0.0,96,0.00,,---,0.00,VWS V14.00,2013-09-25 10:24:00,
2013-09-25 05:25:00,44.5,43.4,29.87,East,80,0.0,0.0,96,0.00,,---,0.00,VWS V14.00,2013-09-25 10:25:00,
2013-09-25 05:29:00,44.5,43.4,29.87,East,80,0.0,0.0,96,0.00,,---,0.00,VWS V14.00,2013-09-25 10:29:00,
2013-09-25 05:30:00,44.5,43.4,29.87,East,80,0.0,0.0,96,0.00,,---,0.00,VWS V14.00,2013-09-25 10:30:00,
2013-09-25 05:34:00,44.7,43.6,29.87,East,80,0.0,0.0,96,0.00,,---,0.00,VWS V14.00,2013-09-25 10:34:00,
2013-09-25 05:35:00,44.7,43.6,29.87,East,80,0.0,0.0,96,0.00,,---,0.00,VWS V14.00,2013-09-25 10:35:00,
2013-09-25 05:39:00,44.9,43.8,29.87,East,80,0.0,0.0,96,0.00,,---,0.00,VWS V14.00,2013-09-25 10:39:00,
2013-09-25 05:40:00,44.9,43.8,29.87,East,80,0.0,0.0,96,0.00,,---,0.00,VWS V14.00,2013-09-25 10:40:00,
2013-09-25 05:44:00,44.9,43.8,29.87,East,80,0.0,0.0,96,0.00,,---,0.00,VWS V14.00,2013-09-25 10:44:00,
2013-09-25 05:45:00,44.9,43.8,29.87,East,80,0.0,0.0,96,0.00,,---,0.00,VWS V14.00,2013-09-25 10:45:00,
2013-09-25 05:49:00,44.7,43.6,29.87,East,80,0.0,0.0,96,0.00,,---,0.00,VWS V14.00,2013-09-25 10:49:00,
2013-09-25 05:50:00,44.7,43.6,29.87,East,80,0.0,0.0,96,0.00,,---,0.00,VWS V14.00,2013-09-25 10:50:00,
2013-09-25 05:54:00,44.6,43.5,29.87,East,80,0.0,0.0,96,0.00,,---,0.00,VWS V14.00,2013-09-25 10:54:00,
2013-09-25 05:55:00,44.6,43.5,29.87,East,80,0.0,0.0,96,0.00,,---,0.00,VWS V14.00,2013-09-25 10:55:00,
2013-09-25 05:59:00,44.7,43.6,29.87,East,80,0.0,0.0,96,0.00,,---,0.00,VWS V14.00,2013-09-25 10:59:00,
2013-09-25 06:00:00,44.7,43.6,29.87,East,80,0.0,0.0,96,0.00,,---,0.00,VWS V14.00,2013-09-25 11:00:00,
2013-09-25 06:04:00,45.1,44.0,29.88,East,80,0.0,0.0,96,0.00,,---,0.00,VWS V14.00,2013-09-25 11:04:00,
2013-09-25 06:05:00,45.1,44.0,29.88,East,80,0.0,0.0,96,0.00,,---,0.00,VWS V14.00,2013-09-25 11:05:00,
2013-09-25 06:09:00,45.3,44.5,29.88,East,80,0.0,0.0,97,0.00,,---,0.00,VWS V14.00,2013-09-25 11:09:00,
2013-09-25 06:10:00,45.3,44.5,29.88,East,80,0.0,0.0,97,0.00,,---,0.00,VWS V14.00,2013-09-25 11:10:00,
2013-09-25 06:14:00,45.3,44.2,29.88,East,80,0.0,0.0,96,0.00,,---,0.00,VWS V14.00,2013-09-25 11:14:00,
2013-09-25 06:15:00,45.3,44.2,29.88,East,80,0.0,0.0,96,0.00,,---,0.00,VWS V14.00,2013-09-25 11:15:00,
2013-09-25 06:19:00,45.3,44.2,29.88,East,80,0.0,0.0,96,0.00,,---,0.00,VWS V14.00,2013-09-25 11:19:00,
2013-09-25 06:20:00,45.3,44.2,29.88,East,80,0.0,0.0,96,0.00,,---,0.00,VWS V14.00,2013-09-25 11:20:00,
2013-09-25 06:24:00,45.3,44.2,29.88,East,80,0.0,0.0,96,0.00,,---,0.00,VWS V14.00,2013-09-25 11:24:00,
2013-09-25 06:25:00,45.3,44.5,29.88,East,80,0.0,0.0,97,0.00,,---,0.00,VWS V14.00,2013-09-25 11:25:00,
2013-09-25 06:29:00,45.3,44.5,29.88,East,80,0.0,0.0,97,0.00,,---,0.00,VWS V14.00,2013-09-25 11:29:00,
2013-09-25 06:30:00,45.3,44.5,29.88,East,80,0.0,0.0,97,0.00,,---,0.00,VWS V14.00,2013-09-25 11:30:00,
2013-09-25 06:34:00,45.3,44.5,29.88,East,80,0.0,0.0,97,0.00,,---,0.00,VWS V14.00,2013-09-25 11:34:00,
2013-09-25 06:35:00,45.3,44.5,29.88,East,80,0.0,0.0,97,0.00,,---,0.00,VWS V14.00,2013-09-25 11:35:00,
2013-09-25 06:39:00,45.2,44.1,29.88,East,80,0.0,0.0,96,0.00,,---,0.00,VWS V14.00,2013-09-25 11:39:00,
2013-09-25 06:40:00,45.2,44.1,29.88,East,80,0.0,0.0,96,0.00,,---,0.00,VWS V14.00,2013-09-25 11:40:00,
2013-09-25 06:44:00,45.0,43.9,29.88,East,80,0.0,0.0,96,0.00,,---,0.00,VWS V14.00,2013-09-25 11:44:00,
2013-09-25 06:45:00,45.0,43.9,29.88,East,80,0.0,0.0,96,0.00,,---,0.00,VWS V14.00,2013-09-25 11:45:00,
2013-09-25 06:49:00,44.8,43.7,29.88,East,80,0.0,0.0,96,0.00,,---,0.00,VWS V14.00,2013-09-25 11:49:00,
2013-09-25 06:50:00,44.8,43.7,29.88,East,80,0.0,0.0,96,0.00,,---,0.00,VWS V14.00,2013-09-25 11:50:00,
2013-09-25 06:54:00,44.6,43.5,29.88,East,80,0.0,0.0,96,0.00,,---,0.00,VWS V14.00,2013-09-25 11:54:00,
2013-09-25 06:55:00,44.6,43.5,29.88,East,80,0.0,0.0,96,0.00,,---,0.00,VWS V14.00,2013-09-25 11:55:00,
2013-09-25 06:59:00,44.4,43.3,29.89,East,80,0.0,0.0,96,0.00,,---,0.00,VWS V14.00,2013-09-25 11:59:00,
2013-09-25 07:00:00,44.4,43.3,29.89,East,80,0.0,0.0,96,0.00,,---,0.00,VWS V14.00,2013-09-25 12:00:00,
2013-09-25 07:04:00,44.3,43.2,29.89,East,80,0.0,0.0,96,0.00,,---,0.00,VWS V14.00,2013-09-25 12:04:00,
2013-09-25 07:05:00,44.3,43.2,29.89,East,80,0.0,0.0,96,0.00,,---,0.00,VWS V14.00,2013-09-25 12:05:00,
2013-09-25 07:09:00,44.6,43.8,29.89,East,80,0.0,0.0,97,0.00,,---,0.00,VWS V14.00,2013-09-25 12:09:00,
2013-09-25 07:10:00,44.6,43.8,29.89,East,80,0.0,0.0,97,0.00,,---,0.00,VWS V14.00,2013-09-25 12:10:00,
2013-09-25 07:14:00,44.9,44.1,29.89,East,80,0.0,0.0,97,0.00,,---,0.00,VWS V14.00,2013-09-25 12:14:00,
2013-09-25 07:15:00,44.9,44.1,29.89,East,80,0.0,0.0,97,0.00,,---,0.00,VWS V14.00,2013-09-25 12:15:00,
2013-09-25 07:19:00,44.9,44.1,29.89,East,80,0.0,0.0,97,0.00,,---,0.00,VWS V14.00,2013-09-25 12:19:00,
2013-09-25 07:20:00,44.9,44.1,29.89,East,80,0.0,0.0,97,0.00,,---,0.00,VWS V14.00,2013-09-25 12:20:00,
2013-09-25 07:24:00,44.8,44.0,29.89,East,80,0.0,0.0,97,0.00,,---,0.00,VWS V14.00,2013-09-25 12:24:00,
2013-09-25 07:25:00,44.8,44.0,29.89,East,80,0.0,0.0,97,0.00,,---,0.00,VWS V14.00,2013-09-25 12:25:00,
2013-09-25 07:27:00,45.0,44.2,29.89,East,80,0.0,0.0,97,0.00,,---,0.00,VWS V14.00,2013-09-25 12:27:00,
2013-09-25 07:30:00,45.3,44.5,29.89,East,80,0.0,0.0,97,0.00,,---,0.00,VWS V14.00,2013-09-25 12:30:00,
2013-09-25 07:32:00,45.5,44.7,29.89,East,80,0.0,0.0,97,0.00,,---,0.00,VWS V14.00,2013-09-25 12:32:00,
2013-09-25 07:35:00,45.7,44.9,29.89,East,80,0.0,0.0,97,0.00,,---,0.00,VWS V14.00,2013-09-25 12:35:00,
2013-09-25 07:37:00,45.9,45.1,29.89,East,80,0.0,0.0,97,0.00,,---,0.00,VWS V14.00,2013-09-25 12:37:00,
2013-09-25 07:40:00,45.9,45.1,29.89,East,80,0.0,0.0,97,0.00,,---,0.00,VWS V14.00,2013-09-25 12:40:00,
2013-09-25 07:42:00,46.0,45.2,29.89,East,80,0.0,0.0,97,0.00,,---,0.00,VWS V14.00,2013-09-25 12:42:00,
2013-09-25 07:45:00,45.9,45.1,29.89,East,80,0.0,0.0,97,0.00,,---,0.00,VWS V14.00,2013-09-25 12:45:00,
2013-09-25 07:47:00,45.9,45.1,29.89,East,80,0.0,0.0,97,0.00,,---,0.00,VWS V14.00,2013-09-25 12:47:00,
2013-09-25 07:50:00,45.9,45.1,29.89,East,80,0.0,0.0,97,0.00,,---,0.00,VWS V14.00,2013-09-25 12:50:00,
2013-09-25 07:52:00,45.9,45.1,29.89,East,80,0.0,0.0,97,0.00,,---,0.00,VWS V14.00,2013-09-25 12:52:00,
2013-09-25 07:55:00,46.0,45.2,29.89,East,80,0.0,0.0,97,0.00,,---,0.00,VWS V14.00,2013-09-25 12:55:00,
2013-09-25 07:57:00,46.2,45.4,29.89,East,80,0.0,0.0,97,0.00,,---,0.00,VWS V14.00,2013-09-25 12:57:00,
2013-09-25 08:00:00,46.6,45.8,29.89,East,80,0.0,0.0,97,0.00,,---,0.00,VWS V14.00,2013-09-25 13:00:00,
2013-09-25 08:02:00,47.6,46.8,29.89,East,80,0.0,0.0,97,0.00,,---,0.00,VWS V14.00,2013-09-25 13:02:00,
2013-09-25 08:05:00,48.2,47.4,29.89,East,80,0.0,0.0,97,0.00,,---,0.00,VWS V14.00,2013-09-25 13:05:00,
2013-09-25 08:07:00,49.1,48.3,29.89,East,80,0.0,0.0,97,0.00,,---,0.00,VWS V14.00,2013-09-25 13:07:00,
2013-09-25 08:10:00,49.5,48.7,29.89,East,81,0.0,1.0,97,0.00,,---,0.00,VWS V14.00,2013-09-25 13:10:00,
2013-09-25 08:12:00,49.9,49.1,29.89,East,81,0.0,0.0,97,0.00,,---,0.00,VWS V14.00,2013-09-25 13:12:00,
2013-09-25 08:15:00,50.1,49.3,29.89,East,81,0.0,0.0,97,0.00,,---,0.00,VWS V14.00,2013-09-25 13:15:00,
2013-09-25 08:17:00,50.5,49.7,29.89,East,81,0.0,0.0,97,0.00,,---,0.00,VWS V14.00,2013-09-25 13:17:00,
2013-09-25 08:20:00,50.7,49.9,29.89,East,80,0.0,1.0,97,0.00,,---,0.00,VWS V14.00,2013-09-25 13:20:00,
2013-09-25 08:22:00,51.2,50.4,29.89,East,80,0.0,0.0,97,0.00,,---,0.00,VWS V14.00,2013-09-25 13:22:00,
2013-09-25 08:25:00,51.5,50.7,29.89,East,81,0.0,0.0,97,0.00,,---,0.00,VWS V14.00,2013-09-25 13:25:00,
2013-09-25 08:27:00,51.9,51.1,29.89,East,81,0.0,0.0,97,0.00,,---,0.00,VWS V14.00,2013-09-25 13:27:00,
2013-09-25 08:30:00,52.5,51.7,29.89,East,81,0.0,0.0,97,0.00,,---,0.00,VWS V14.00,2013-09-25 13:30:00,
2013-09-25 08:32:00,52.7,51.9,29.89,East,81,0.0,0.0,97,0.00,,---,0.00,VWS V14.00,2013-09-25 13:32:00,
2013-09-25 08:35:00,53.0,52.5,29.89,East,81,0.0,0.0,98,0.00,,---,0.00,VWS V14.00,2013-09-25 13:35:00,
2013-09-25 08:37:00,53.2,52.4,29.89,ENE,78,0.0,1.0,97,0.00,,---,0.00,VWS V14.00,2013-09-25 13:37:00,
2013-09-25 08:40:00,53.5,52.7,29.89,ENE,65,2.0,2.0,97,0.00,,---,0.00,VWS V14.00,2013-09-25 13:40:00,
2013-09-25 08:42:00,53.7,52.9,29.89,East,90,1.0,2.0,97,0.00,,---,0.00,VWS V14.00,2013-09-25 13:42:00,
2013-09-25 08:45:00,53.8,53.0,29.89,ENE,70,0.0,3.0,97,0.00,,---,0.00,VWS V14.00,2013-09-25 13:45:00,
2013-09-25 08:47:00,54.1,53.3,29.89,ENE,63,0.0,4.0,97,0.00,,---,0.00,VWS V14.00,2013-09-25 13:47:00,
2013-09-25 08:50:00,54.3,53.5,29.89,ENE,74,0.0,4.0,97,0.00,,---,0.00,VWS V14.00,2013-09-25 13:50:00,
2013-09-25 08:52:00,54.5,53.4,29.89,ENE,61,2.0,4.0,96,0.00,,---,0.00,VWS V14.00,2013-09-25 13:52:00,
2013-09-25 08:55:00,54.6,53.5,29.89,ENE,62,0.0,5.0,96,0.00,,---,0.00,VWS V14.00,2013-09-25 13:55:00,
2013-09-25 08:57:00,54.8,53.7,29.89,East,80,0.0,2.0,96,0.00,,---,0.00,VWS V14.00,2013-09-25 13:57:00,
2013-09-25 09:00:00,55.0,53.6,29.89,ENE,78,0.0,2.0,95,0.00,,---,0.00,VWS V14.00,2013-09-25 14:00:00,
2013-09-25 09:02:00,55.2,53.8,29.89,ENE,75,0.0,2.0,95,0.00,,---,0.00,VWS V14.00,2013-09-25 14:02:00,
2013-09-25 09:05:00,55.4,54.0,29.89,ENE,58,3.0,4.0,95,0.00,,---,0.00,VWS V14.00,2013-09-25 14:05:00,
2013-09-25 09:07:00,55.8,54.4,29.89,NE,53,3.0,3.0,95,0.00,,---,0.00,VWS V14.00,2013-09-25 14:07:00,
2013-09-25 09:10:00,55.8,54.1,29.89,ENE,66,0.0,4.0,94,0.00,,---,0.00,VWS V14.00,2013-09-25 14:10:00,
2013-09-25 09:12:00,56.0,54.3,29.89,ENE,76,0.0,3.0,94,0.00,,---,0.00,VWS V14.00,2013-09-25 14:12:00,
2013-09-25 09:15:00,56.2,54.5,29.89,NE,44,1.0,3.0,94,0.00,,---,0.00,VWS V14.00,2013-09-25 14:15:00,
2013-09-25 09:17:00,56.4,54.4,29.89,East,91,2.0,3.0,93,0.00,,---,0.00,VWS V14.00,2013-09-25 14:17:00,
2013-09-25 09:20:00,56.6,54.6,29.89,ESE,104,0.0,4.0,93,0.00,,---,0.00,VWS V14.00,2013-09-25 14:20:00,
2013-09-25 09:22:00,57.1,55.1,29.89,ESE,111,1.0,3.0,93,0.00,,---,0.00,VWS V14.00,2013-09-25 14:22:00,
2013-09-25 09:25:00,57.4,55.1,29.89,ESE,111,0.0,3.0,92,0.00,,---,0.00,VWS V14.00,2013-09-25 14:25:00,
2013-09-25 09:27:00,57.8,55.2,29.89,ESE,110,0.0,1.0,91,0.00,,---,0.00,VWS V14.00,2013-09-25 14:27:00,
2013-09-25 09:30:00,58.0,55.4,29.89,ENE,63,0.0,2.0,91,0.00,,---,0.00,VWS V14.00,2013-09-25 14:30:00,
2013-09-25 09:32:00,58.1,55.2,29.89,ENE,63,2.0,3.0,90,0.00,,---,0.00,VWS V14.00,2013-09-25 14:32:00,
2013-09-25 09:35:00,58.1,55.2,29.89,ENE,61,0.0,4.0,90,0.00,,---,0.00,VWS V14.00,2013-09-25 14:35:00,
2013-09-25 09:37:00,58.2,55.3,29.89,ENE,78,0.0,5.0,90,0.00,,---,0.00,VWS V14.00,2013-09-25 14:37:00,
2013-09-25 09:40:00,58.3,55.4,29.89,ESE,107,1.0,5.0,90,0.00,,---,0.00,VWS V14.00,2013-09-25 14:40:00,
2013-09-25 09:42:00,58.4,55.2,29.89,ESE,113,0.0,4.0,89,0.00,,---,0.00,VWS V14.00,2013-09-25 14:42:00,
2013-09-25 09:45:00,58.6,55.4,29.88,SE,134,0.0,4.0,89,0.00,,---,0.00,VWS V14.00,2013-09-25 14:45:00,
2013-09-25 09:47:00,58.9,55.7,29.88,ESE,119,0.0,4.0,89,0.00,,---,0.00,VWS V14.00,2013-09-25 14:47:00,
2013-09-25 09:50:00,59.1,55.9,29.88,East,99,0.0,4.0,89,0.00,,---,0.00,VWS V14.00,2013-09-25 14:50:00,
2013-09-25 09:52:00,59.2,55.7,29.88,East,87,0.0,4.0,88,0.00,,---,0.00,VWS V14.00,2013-09-25 14:52:00,
2013-09-25 09:55:00,59.3,55.8,29.88,ENE,68,0.0,4.0,88,0.00,,---,0.00,VWS V14.00,2013-09-25 14:55:00,
2013-09-25 09:58:00,59.8,56.6,29.88,East,96,0.0,3.0,89,0.00,,---,0.00,VWS V14.00,2013-09-25 14:58:00,
2013-09-25 10:00:00,60.0,56.4,29.88,SE,132,2.0,6.0,88,0.00,,---,0.00,VWS V14.00,2013-09-25 15:00:00,
2013-09-25 10:03:00,60.4,56.5,29.88,East,84,0.0,3.0,87,0.00,,---,0.00,VWS V14.00,2013-09-25 15:03:00,
2013-09-25 10:05:00,60.5,56.6,29.88,ESE,102,0.0,3.0,87,0.00,,---,0.00,VWS V14.00,2013-09-25 15:05:00,
2013-09-25 10:08:00,60.6,56.4,29.89,NE,55,0.0,5.0,86,0.00,,---,0.00,VWS V14.00,2013-09-25 15:08:00,
2013-09-25 10:10:00,60.7,56.5,29.88,ESE,111,0.0,5.0,86,0.00,,---,0.00,VWS V14.00,2013-09-25 15:10:00,
2013-09-25 10:13:00,61.1,56.9,29.88,East,98,3.0,6.0,86,0.00,,---,0.00,VWS V14.00,2013-09-25 15:13:00,
2013-09-25 10:15:00,61.2,57.0,29.88,SE,130,3.0,6.0,86,0.00,,---,0.00,VWS V14.00,2013-09-25 15:15:00,
2013-09-25 10:18:00,61.5,57.0,29.88,SE,131,4.0,9.0,85,0.00,,---,0.00,VWS V14.00,2013-09-25 15:18:00,
2013-09-25 10:20:00,61.4,56.9,29.89,SE,138,3.0,9.0,85,0.00,,---,0.00,VWS V14.00,2013-09-25 15:20:00,
2013-09-25 10:23:00,61.6,57.0,29.88,NE,51,0.0,5.0,85,0.00,,---,0.00,VWS V14.00,2013-09-25 15:23:00,
2013-09-25 10:25:00,61.7,57.2,29.89,ESE,120,0.0,5.0,85,0.00,,---,0.00,VWS V14.00,2013-09-25 15:25:00,
2013-09-25 10:28:00,62.1,57.2,29.89,SE,125,0.0,6.0,84,0.00,,---,0.00,VWS V14.00,2013-09-25 15:28:00,
2013-09-25 10:30:00,62.2,57.3,29.88,East,95,0.0,6.0,84,0.00,,---,0.00,VWS V14.00,2013-09-25 15:30:00,
2013-09-25 10:33:00,62.6,57.4,29.89,NNE,17,0.0,4.0,83,0.00,,---,0.00,VWS V14.00,2013-09-25 15:33:00,
2013-09-25 10:35:00,62.7,57.5,29.88,NE,46,0.0,4.0,83,0.00,,---,0.00,VWS V14.00,2013-09-25 15:35:00,
2013-09-25 10:38:00,63.0,57.1,29.89,ENE,65,3.0,7.0,81,0.00,,---,0.00,VWS V14.00,2013-09-25 15:38:00,
2013-09-25 10:40:00,63.0,57.1,29.89,East,93,3.0,7.0,81,0.00,,---,0.00,VWS V14.00,2013-09-25 15:40:00,
2013-09-25 10:43:00,63.1,56.8,29.89,ENE,69,0.0,4.0,80,0.00,,---,0.00,VWS V14.00,2013-09-25 15:43:00,
2013-09-25 10:45:00,63.2,56.6,29.89,NE,51,4.0,4.0,79,0.00,,---,0.00,VWS V14.00,2013-09-25 15:45:00,
2013-09-25 10:48:00,63.3,57.0,29.89,ESE,103,4.0,6.0,80,0.00,,---,0.00,VWS V14.00,2013-09-25 15:48:00,
2013-09-25 10:50:00,63.4,56.1,29.89,NE,51,2.0,6.0,77,0.00,,---,0.00,VWS V14.00,2013-09-25 15:50:00,
2013-09-25 10:53:00,63.8,56.5,29.88,SE,129,2.0,9.0,77,0.00,,---,0.00,VWS V14.00,2013-09-25 15:53:00,
2013-09-25 10:55:00,63.8,56.5,29.88,ESE,114,7.0,11.0,77,0.00,,---,0.00,VWS V14.00,2013-09-25 15:55:00,
2013-09-25 10:58:00,63.9,55.8,29.89,ESE,109,6.0,9.0,75,0.00,,---,0.00,VWS V14.00,2013-09-25 15:58:00,
2013-09-25 11:00:00,63.9,55.5,29.88,South,175,3.0,9.0,74,0.00,,---,0.00,VWS V14.00,2013-09-25 16:00:00,
2013-09-25 11:03:00,64.3,55.8,29.89,ESE,105,4.0,7.0,74,0.00,,---,0.00,VWS V14.00,2013-09-25 16:03:00,
2013-09-25 11:05:00,64.3,55.8,29.89,ENE,70,5.0,7.0,74,0.00,,---,0.00,VWS V14.00,2013-09-25 16:05:00,
2013-09-25 11:08:00,64.5,56.0,29.89,ESE,115,5.0,9.0,74,0.00,,---,0.00,VWS V14.00,2013-09-25 16:08:00,
2013-09-25 11:10:00,64.5,55.7,29.88,ESE,106,4.0,9.0,73,0.00,,---,0.00,VWS V14.00,2013-09-25 16:10:00,
2013-09-25 11:13:00,64.8,55.6,29.89,East,91,3.0,9.0,72,0.00,,---,0.00,VWS V14.00,2013-09-25 16:13:00,
2013-09-25 11:15:00,64.8,55.6,29.89,NE,55,3.0,9.0,72,0.00,,---,0.00,VWS V14.00,2013-09-25 16:15:00,
2013-09-25 11:18:00,64.9,55.7,29.88,SE,134,2.0,7.0,72,0.00,,---,0.00,VWS V14.00,2013-09-25 16:18:00,
2013-09-25 11:20:00,64.9,55.7,29.89,ENE,57,3.0,7.0,72,0.00,,---,0.00,VWS V14.00,2013-09-25 16:20:00,
2013-09-25 11:23:00,65.0,55.0,29.89,East,88,1.0,11.0,70,0.00,,---,0.00,VWS V14.00,2013-09-25 16:23:00,
2013-09-25 11:25:00,65.0,55.0,29.89,NE,49,3.0,11.0,70,0.00,,---,0.00,VWS V14.00,2013-09-25 16:25:00,
2013-09-25 11:28:00,65.2,55.6,29.88,East,90,5.0,7.0,71,0.00,,---,0.00,VWS V14.00,2013-09-25 16:28:00,
2013-09-25 11:30:00,65.3,55.3,29.88,ESE,103,0.0,7.0,70,0.00,,---,0.00,VWS V14.00,2013-09-25 16:30:00,
2013-09-25 11:33:00,65.8,55.0,29.88,SE,125,0.0,7.0,68,0.00,,---,0.00,VWS V14.00,2013-09-25 16:33:00,
2013-09-25 11:35:00,65.8,55.4,29.88,ESE,123,6.0,8.0,69,0.00,,---,0.00,VWS V14.00,2013-09-25 16:35:00,
2013-09-25 11:38:00,65.6,54.4,29.88,ESE,111,1.0,9.0,67,0.00,,---,0.00,VWS V14.00,2013-09-25 16:38:00,
2013-09-25 11:40:00,65.6,54.0,29.88,SE,143,0.0,9.0,66,0.00,,---,0.00,VWS V14.00,2013-09-25 16:40:00,
2013-09-25 11:43:00,65.9,55.0,29.88,ESE,103,0.0,9.0,68,0.00,,---,0.00,VWS V14.00,2013-09-25 16:43:00,
2013-09-25 11:45:00,66.0,54.7,29.88,ENE,67,0.0,9.0,67,0.00,,---,0.00,VWS V14.00,2013-09-25 16:45:00,
2013-09-25 11:48:00,66.7,56.2,29.88,ESE,121,1.0,7.0,69,0.00,,---,0.00,VWS V14.00,2013-09-25 16:48:00,
2013-09-25 11:50:00,66.8,55.5,29.88,East,80,5.0,7.0,67,0.00,,---,0.00,VWS V14.00,2013-09-25 16:50:00,
2013-09-25 11:53:00,66.8,54.7,29.88,ESE,119,3.0,6.0,65,0.00,,---,0.00,VWS V14.00,2013-09-25 16:53:00,
2013-09-25 11:55:00,66.9,54.8,29.88,SE,132,4.0,13.0,65,0.00,,---,0.00,VWS V14.00,2013-09-25 16:55:00,
2013-09-25 11:58:00,66.8,53.8,29.88,East,92,2.0,13.0,63,0.00,,---,0.00,VWS V14.00,2013-09-25 16:58:00,
2013-09-25 12:00:00,66.9,53.9,29.88,ESE,107,0.0,13.0,63,0.00,,---,0.00,VWS V14.00,2013-09-25 17:00:00,
2013-09-25 12:03:00,67.2,53.8,29.88,NE,49,0.0,11.0,62,0.00,,---,0.00,VWS V14.00,2013-09-25 17:03:00,
2013-09-25 12:05:00,67.2,54.2,29.88,ENE,71,2.0,11.0,63,0.00,,---,0.00,VWS V14.00,2013-09-25 17:05:00,
2013-09-25 12:08:00,67.3,53.8,29.88,ESE,102,4.0,10.0,62,0.00,,---,0.00,VWS V14.00,2013-09-25 17:08:00,
2013-09-25 12:10:00,67.3,53.8,29.88,ESE,114,3.0,10.0,62,0.00,,---,0.00,VWS V14.00,2013-09-25 17:10:00,
2013-09-25 12:13:00,67.2,53.8,29.88,East,101,2.0,6.0,62,0.00,,---,0.00,VWS V14.00,2013-09-25 17:13:00,
2013-09-25 12:15:00,67.2,53.3,29.88,East,88,1.0,6.0,61,0.00,,---,0.00,VWS V14.00,2013-09-25 17:15:00,
2013-09-25 12:18:00,67.1,54.1,29.87,SE,146,0.0,6.0,63,0.00,,---,0.00,VWS V14.00,2013-09-25 17:18:00,
2013-09-25 12:20:00,67.2,54.2,29.87,East,96,2.0,6.0,63,0.00,,---,0.00,VWS V14.00,2013-09-25 17:20:00,
2013-09-25 12:23:00,67.4,53.9,29.87,East,80,0.0,10.0,62,0.00,,---,0.00,VWS V14.00,2013-09-25 17:23:00,
2013-09-25 12:25:00,67.3,53.8,29.87,East,96,0.0,10.0,62,0.00,,---,0.00,VWS V14.00,2013-09-25 17:25:00,
2013-09-25 12:28:00,67.4,54.4,29.87,SE,124,7.0,10.0,63,0.00,,---,0.00,VWS V14.00,2013-09-25 17:28:00,
2013-09-25 12:30:00,67.5,54.0,29.87,East,95,3.0,10.0,62,0.00,,---,0.00,VWS V14.00,2013-09-25 17:30:00,
2013-09-25 12:33:00,67.6,54.1,29.87,ESE,117,3.0,5.0,62,0.00,,---,0.00,VWS V14.00,2013-09-25 17:33:00,
2013-09-25 12:35:00,67.7,54.7,29.87,ESE,122,2.0,5.0,63,0.00,,---,0.00,VWS V14.00,2013-09-25 17:35:00,
2013-09-25 12:38:00,67.6,54.1,29.87,ESE,103,1.0,9.0,62,0.00,,---,0.00,VWS V14.00,2013-09-25 17:38:00,
2013-09-25 12:40:00,67.6,54.1,29.87,East,80,4.0,9.0,62,0.00,,---,0.00,VWS V14.00,2013-09-25 17:40:00,
2013-09-25 12:43:00,67.6,54.1,29.87,NE,50,0.0,4.0,62,0.00,,---,0.00,VWS V14.00,2013-09-25 17:43:00,
2013-09-25 12:45:00,67.5,53.6,29.87,NNE,15,0.0,4.0,61,0.00,,---,0.00,VWS V14.00,2013-09-25 17:45:00,
2013-09-25 12:48:00,68.0,55.4,29.87,SE,129,3.0,3.0,64,0.00,,---,0.00,VWS V14.00,2013-09-25 17:48:00,
2013-09-25 12:50:00,68.1,55.9,29.87,East,86,0.0,4.0,65,0.00,,---,0.00,VWS V14.00,2013-09-25 17:50:00,
2013-09-25 12:53:00,68.0,54.1,29.87,ENE,68,0.0,10.0,61,0.00,,---,0.00,VWS V14.00,2013-09-25 17:53:00,
2013-09-25 12:55:00,67.9,54.0,29.87,ENE,68,0.0,10.0,61,0.00,,---,0.00,VWS V14.00,2013-09-25 17:55:00,
2013-09-25 12:58:00,67.6,53.2,29.87,NNE,16,3.0,6.0,60,0.00,,---,0.00,VWS V14.00,2013-09-25 17:58:00,
2013-09-25 13:00:00,67.6,54.1,29.87,NNE,14,3.0,6.0,62,0.00,,---,0.00,VWS V14.00,2013-09-25 18:00:00,
2013-09-25 13:03:00,67.8,54.8,29.86,ENE,76,0.0,5.0,63,0.00,,---,0.00,VWS V14.00,2013-09-25 18:03:00,
2013-09-25 13:05:00,67.9,54.4,29.86,ESE,113,0.0,5.0,62,0.00,,---,0.00,VWS V14.00,2013-09-25 18:05:00,
2013-09-25 13:09:00,67.9,54.8,29.86,NE,51,5.0,5.0,63,0.00,,---,0.00,VWS V14.00,2013-09-25 18:09:00,
2013-09-25 13:10:00,67.8,54.3,29.86,NE,54,1.0,5.0,62,0.00,,---,0.00,VWS V14.00,2013-09-25 18:10:00,
2013-09-25 13:14:00,68.2,55.1,29.86,East,83,2.0,6.0,63,0.00,,---,0.00,VWS V14.00,2013-09-25 18:14:00,
2013-09-25 13:15:00,68.3,54.3,29.86,East,98,5.0,6.0,61,0.00,,---,0.00,VWS V14.00,2013-09-25 18:15:00,
2013-09-25 13:19:00,68.2,54.2,29.86,SSE,155,1.0,7.0,61,0.00,,---,0.00,VWS V14.00,2013-09-25 18:19:00,
2013-09-25 13:20:00,68.3,54.3,29.86,SE,126,1.0,7.0,61,0.00,,---,0.00,VWS V14.00,2013-09-25 18:20:00,
2013-09-25 13:24:00,68.5,54.5,29.86,SE,125,2.0,6.0,61,0.00,,---,0.00,VWS V14.00,2013-09-25 18:24:00,
2013-09-25 13:25:00,68.5,54.5,29.86,ESE,119,3.0,7.0,61,0.00,,---,0.00,VWS V14.00,2013-09-25 18:25:00,
2013-09-25 13:29:00,68.3,54.3,29.86,North,11,0.0,4.0,61,0.00,,---,0.00,VWS V14.00,2013-09-25 18:29:00,
2013-09-25 13:30:00,68.3,54.3,29.86,North,11,0.0,4.0,61,0.00,,---,0.00,VWS V14.00,2013-09-25 18:30:00,
2013-09-25 13:34:00,68.7,55.2,29.86,ENE,69,2.0,3.0,62,0.00,,---,0.00,VWS V14.00,2013-09-25 18:34:00,
2013-09-25 13:35:00,68.7,55.2,29.86,ENE,69,0.0,3.0,62,0.00,,---,0.00,VWS V14.00,2013-09-25 18:35:00,
2013-09-25 13:39:00,68.8,54.4,29.86,East,91,0.0,5.0,60,0.00,,---,0.00,VWS V14.00,2013-09-25 18:39:00,
2013-09-25 13:40:00,68.8,54.4,29.86,East,91,1.0,5.0,60,0.00,,---,0.00,VWS V14.00,2013-09-25 18:40:00,
2013-09-25 13:44:00,68.9,54.5,29.85,East,99,0.0,6.0,60,0.00,,---,0.00,VWS V14.00,2013-09-25 18:44:00,
2013-09-25 13:45:00,68.9,54.5,29.85,East,99,1.0,6.0,60,0.00,,---,0.00,VWS V14.00,2013-09-25 18:45:00,
2013-09-25 13:49:00,69.0,54.1,29.85,ENE,74,0.0,5.0,59,0.00,,---,0.00,VWS V14.00,2013-09-25 18:49:00,
2013-09-25 13:50:00,69.0,54.1,29.85,NE,53,5.0,5.0,59,0.00,,---,0.00,VWS V14.00,2013-09-25 18:50:00,
2013-09-25 13:54:00,68.7,53.3,29.85,ESE,120,1.0,9.0,58,0.00,,---,0.00,VWS V14.00,2013-09-25 18:54:00,
2013-09-25 13:55:00,68.7,53.3,29.85,ENE,66,2.0,9.0,58,0.00,,---,0.00,VWS V14.00,2013-09-25 18:55:00,
2013-09-25 13:59:00,68.6,53.7,29.84,NE,53,0.0,7.0,59,0.00,,---,0.00,VWS V14.00,2013-09-25 18:59:00,
2013-09-25 14:00:00,68.6,53.7,29.84,NE,53,0.0,7.0,59,0.00,,---,0.00,VWS V14.00,2013-09-25 19:00:00,
2013-09-25 14:04:00,68.9,54.0,29.85,NNE,27,0.0,5.0,59,0.00,,---,0.00,VWS V14.00,2013-09-25 19:04:00,
2013-09-25 14:05:00,68.9,54.0,29.85,NE,45,6.0,6.0,59,0.00,,---,0.00,VWS V14.00,2013-09-25 19:05:00,
2013-09-25 14:09:00,69.0,54.5,29.84,North,355,0.0,6.0,60,0.00,,---,0.00,VWS V14.00,2013-09-25 19:09:00,
2013-09-25 14:10:00,69.0,54.5,29.84,North,360,0.0,6.0,60,0.00,,---,0.00,VWS V14.00,2013-09-25 19:10:00,
2013-09-25 14:14:00,69.3,55.3,29.84,ENE,76,0.0,6.0,61,0.00,,---,0.00,VWS V14.00,2013-09-25 19:14:00,
2013-09-25 14:15:00,69.3,55.3,29.84,ENE,76,0.0,6.0,61,0.00,,---,0.00,VWS V14.00,2013-09-25 19:15:00,
2013-09-25 14:19:00,69.5,54.1,29.84,ENE,70,1.0,7.0,58,0.00,,---,0.00,VWS V14.00,2013-09-25 19:19:00,
2013-09-25 14:20:00,69.5,54.1,29.84,ENE,70,1.0,7.0,58,0.00,,---,0.00,VWS V14.00,2013-09-25 19:20:00,
2013-09-25 14:24:00,69.4,54.5,29.84,NE,55,1.0,5.0,59,0.00,,---,0.00,VWS V14.00,2013-09-25 19:24:00,
2013-09-25 14:25:00,69.4,54.5,29.84,NE,55,1.0,5.0,59,0.00,,---,0.00,VWS V14.00,2013-09-25 19:25:00,
2013-09-25 14:29:00,69.4,54.5,29.84,SE,126,2.0,7.0,59,0.00,,---,0.00,VWS V14.00,2013-09-25 19:29:00,
2013-09-25 14:30:00,69.4,54.5,29.84,SE,126,2.0,7.0,59,0.00,,---,0.00,VWS V14.00,2013-09-25 19:30:00,
2013-09-25 14:34:00,69.4,54.5,29.84,ESE,102,1.0,5.0,59,0.00,,---,0.00,VWS V14.00,2013-09-25 19:34:00,
2013-09-25 14:35:00,69.4,54.5,29.84,ESE,102,1.0,5.0,59,0.00,,---,0.00,VWS V14.00,2013-09-25 19:35:00,
2013-09-25 14:39:00,69.5,54.6,29.84,ESE,113,0.0,7.0,59,0.00,,---,0.00,VWS V14.00,2013-09-25 19:39:00,
2013-09-25 14:40:00,69.5,54.6,29.84,ESE,113,0.0,7.0,59,0.00,,---,0.00,VWS V14.00,2013-09-25 19:40:00,
2013-09-25 14:44:00,69.6,54.2,29.84,ENE,57,0.0,7.0,58,0.00,,---,0.00,VWS V14.00,2013-09-25 19:44:00,
2013-09-25 14:45:00,69.6,54.2,29.84,ENE,57,0.0,7.0,58,0.00,,---,0.00,VWS V14.00,2013-09-25 19:45:00,
2013-09-25 14:49:00,69.7,54.3,29.84,NE,34,0.0,6.0,58,0.00,,---,0.00,VWS V14.00,2013-09-25 19:49:00,
2013-09-25 14:50:00,69.7,54.3,29.84,NE,34,0.0,6.0,58,0.00,,---,0.00,VWS V14.00,2013-09-25 19:50:00,
2013-09-25 14:54:00,69.8,54.4,29.84,NE,44,0.0,5.0,58,0.00,,---,0.00,VWS V14.00,2013-09-25 19:54:00,
2013-09-25 14:55:00,69.8,54.4,29.84,NE,44,0.0,5.0,58,0.00,,---,0.00,VWS V14.00,2013-09-25 19:55:00,
2013-09-25 14:59:00,69.7,54.8,29.84,NE,53,0.0,5.0,59,0.00,,---,0.00,VWS V14.00,2013-09-25 19:59:00,
2013-09-25 15:00:00,69.7,54.8,29.84,NE,53,0.0,5.0,59,0.00,,---,0.00,VWS V14.00,2013-09-25 20:00:00,
2013-09-25 15:04:00,69.7,53.8,29.84,East,90,0.0,5.0,57,0.00,,---,0.00,VWS V14.00,2013-09-25 20:04:00,
2013-09-25 15:05:00,69.7,53.8,29.84,East,90,0.0,5.0,57,0.00,,---,0.00,VWS V14.00,2013-09-25 20:05:00,
2013-09-25 15:09:00,70.0,54.1,29.84,ESE,121,1.0,7.0,57,0.00,,---,0.00,VWS V14.00,2013-09-25 20:09:00,
2013-09-25 15:10:00,70.0,54.1,29.84,ESE,121,1.0,7.0,57,0.00,,---,0.00,VWS V14.00,2013-09-25 20:10:00,
2013-09-25 15:14:00,69.9,54.5,29.84,ENE,64,0.0,5.0,58,0.00,,---,0.00,VWS V14.00,2013-09-25 20:14:00,
2013-09-25 15:15:00,69.9,54.5,29.84,ENE,64,0.0,5.0,58,0.00,,---,0.00,VWS V14.00,2013-09-25 20:15:00,
2013-09-25 15:19:00,69.9,54.5,29.84,ENE,71,6.0,6.0,58,0.00,,---,0.00,VWS V14.00,2013-09-25 20:19:00,
2013-09-25 15:20:00,69.9,54.5,29.84,ENE,71,6.0,6.0,58,0.00,,---,0.00,VWS V14.00,2013-09-25 20:20:00,
2013-09-25 15:24:00,70.1,54.7,29.84,SE,125,0.0,9.0,58,0.00,,---,0.00,VWS V14.00,2013-09-25 20:24:00,
2013-09-25 15:25:00,70.1,54.7,29.84,SE,125,0.0,9.0,58,0.00,,---,0.00,VWS V14.00,2013-09-25 20:25:00,
2013-09-25 15:29:00,70.2,54.3,29.83,SSE,163,2.0,4.0,57,0.00,,---,0.00,VWS V14.00,2013-09-25 20:29:00,
2013-09-25 15:30:00,70.2,54.3,29.83,ESE,121,1.0,4.0,57,0.00,,---,0.00,VWS V14.00,2013-09-25 20:30:00,
2013-09-25 15:34:00,70.4,54.9,29.83,ENE,57,1.0,4.0,58,0.00,,---,0.00,VWS V14.00,2013-09-25 20:34:00,
2013-09-25 15:35:00,70.4,54.9,29.83,ENE,57,1.0,4.0,58,0.00,,---,0.00,VWS V14.00,2013-09-25 20:35:00,
2013-09-25 15:39:00,70.4,54.5,29.83,ESE,115,0.0,6.0,57,0.00,,---,0.00,VWS V14.00,2013-09-25 20:39:00,
2013-09-25 15:40:00,70.4,54.5,29.83,ESE,115,0.0,6.0,57,0.00,,---,0.00,VWS V14.00,2013-09-25 20:40:00,
2013-09-25 15:44:00,70.4,55.4,29.83,NE,53,3.0,5.0,59,0.00,,---,0.00,VWS V14.00,2013-09-25 20:44:00,
2013-09-25 15:45:00,70.4,55.4,29.83,NE,53,3.0,5.0,59,0.00,,---,0.00,VWS V14.00,2013-09-25 20:45:00,
2013-09-25 15:49:00,70.3,53.9,29.83,NE,37,0.0,5.0,56,0.00,,---,0.00,VWS V14.00,2013-09-25 20:49:00,
2013-09-25 15:50:00,70.3,53.9,29.83,NE,37,0.0,5.0,56,0.00,,---,0.00,VWS V14.00,2013-09-25 20:50:00,
2013-09-25 15:54:00,70.2,53.8,29.83,NE,51,0.0,6.0,56,0.00,,---,0.00,VWS V14.00,2013-09-25 20:54:00,
2013-09-25 15:55:00,70.2,53.8,29.83,NE,51,0.0,6.0,56,0.00,,---,0.00,VWS V14.00,2013-09-25 20:55:00,
2013-09-25 15:59:00,70.2,53.8,29.83,NE,54,0.0,4.0,56,0.00,,---,0.00,VWS V14.00,2013-09-25 20:59:00,
2013-09-25 16:00:00,70.2,53.8,29.83,NE,54,0.0,4.0,56,0.00,,---,0.00,VWS V14.00,2013-09-25 21:00:00,
2013-09-25 16:04:00,70.3,53.9,29.83,East,96,0.0,7.0,56,0.00,,---,0.00,VWS V14.00,2013-09-25 21:04:00,
2013-09-25 16:05:00,70.3,53.9,29.83,East,96,0.0,7.0,56,0.00,,---,0.00,VWS V14.00,2013-09-25 21:05:00,
2013-09-25 16:09:00,70.5,54.1,29.83,SE,127,0.0,5.0,56,0.00,,---,0.00,VWS V14.00,2013-09-25 21:09:00,
2013-09-25 16:10:00,70.5,54.1,29.83,SE,127,0.0,5.0,56,0.00,,---,0.00,VWS V14.00,2013-09-25 21:10:00,
2013-09-25 16:14:00,70.6,53.2,29.83,SSE,148,0.0,5.0,54,0.00,,---,0.00,VWS V14.00,2013-09-25 21:14:00,
2013-09-25 16:15:00,70.6,53.2,29.83,SSE,148,0.0,5.0,54,0.00,,---,0.00,VWS V14.00,2013-09-25 21:15:00,
2013-09-25 16:19:00,70.5,54.1,29.83,East,82,0.0,4.0,56,0.00,,---,0.00,VWS V14.00,2013-09-25 21:19:00,
2013-09-25 16:20:00,70.5,54.1,29.83,East,82,0.0,4.0,56,0.00,,---,0.00,VWS V14.00,2013-09-25 21:20:00,
2013-09-25 16:24:00,70.4,53.0,29.83,NNE,25,1.0,5.0,54,0.00,,---,0.00,VWS V14.00,2013-09-25 21:24:00,
2013-09-25 16:25:00,70.4,53.0,29.83,NNE,25,1.0,5.0,54,0.00,,---,0.00,VWS V14.00,2013-09-25 21:25:00,
2013-09-25 16:29:00,70.4,54.0,29.83,NE,54,0.0,3.0,56,0.00,,---,0.00,VWS V14.00,2013-09-25 21:29:00,
2013-09-25 16:30:00,70.4,54.0,29.83,NE,54,0.0,3.0,56,0.00,,---,0.00,VWS V14.00,2013-09-25 21:30:00,
2013-09-25 16:34:00,70.4,53.0,29.82,NE,44,2.0,5.0,54,0.00,,---,0.00,VWS V14.00,2013-09-25 21:34:00,
2013-09-25 16:35:00,70.4,53.0,29.82,NE,44,2.0,5.0,54,0.00,,---,0.00,VWS V14.00,2013-09-25 21:35:00,
2013-09-25 16:39:00,70.4,53.5,29.82,ENE,69,2.0,5.0,55,0.00,,---,0.00,VWS V14.00,2013-09-25 21:39:00,
2013-09-25 16:40:00,70.4,53.5,29.82,ENE,69,2.0,5.0,55,0.00,,---,0.00,VWS V14.00,2013-09-25 21:40:00,
2013-09-25 16:44:00,70.4,53.5,29.82,ESE,121,2.0,5.0,55,0.00,,---,0.00,VWS V14.00,2013-09-25 21:44:00,
2013-09-25 16:45:00,70.4,53.5,29.82,ESE,121,2.0,5.0,55,0.00,,---,0.00,VWS V14.00,2013-09-25 21:45:00,
2013-09-25 16:49:00,70.3,53.4,29.82,SE,130,0.0,5.0,55,0.00,,---,0.00,VWS V14.00,2013-09-25 21:49:00,
2013-09-25 16:50:00,70.3,53.4,29.82,SE,130,0.0,5.0,55,0.00,,---,0.00,VWS V14.00,2013-09-25 21:50:00,
2013-09-25 16:54:00,70.0,53.1,29.82,East,87,1.0,6.0,55,0.00,,---,0.00,VWS V14.00,2013-09-25 21:54:00,
2013-09-25 16:55:00,70.0,53.1,29.82,East,87,1.0,6.0,55,0.00,,---,0.00,VWS V14.00,2013-09-25 21:55:00,
2013-09-25 16:59:00,70.1,53.7,29.82,ENE,64,0.0,3.0,56,0.00,,---,0.00,VWS V14.00,2013-09-25 21:59:00,
2013-09-25 17:00:00,70.1,53.7,29.82,ENE,64,0.0,3.0,56,0.00,,---,0.00,VWS V14.00,2013-09-25 22:00:00,
2013-09-25 17:04:00,70.1,53.7,29.83,East,83,0.0,2.0,56,0.00,,---,0.00,VWS V14.00,2013-09-25 22:04:00,
2013-09-25 17:05:00,70.1,53.7,29.83,East,84,0.0,2.0,56,0.00,,---,0.00,VWS V14.00,2013-09-25 22:05:00,
2013-09-25 17:09:00,70.1,54.2,29.83,North,9,0.0,3.0,57,0.00,,---,0.00,VWS V14.00,2013-09-25 22:09:00,
2013-09-25 17:10:00,70.1,54.2,29.83,North,9,0.0,3.0,57,0.00,,---,0.00,VWS V14.00,2013-09-25 22:10:00,
2013-09-25 17:14:00,70.0,53.6,29.83,ESE,106,1.0,5.0,56,0.00,,---,0.00,VWS V14.00,2013-09-25 22:14:00,
2013-09-25 17:15:00,70.0,53.6,29.83,ESE,106,1.0,5.0,56,0.00,,---,0.00,VWS V14.00,2013-09-25 22:15:00,
2013-09-25 17:19:00,69.7,53.3,29.83,ESE,111,1.0,7.0,56,0.00,,---,0.00,VWS V14.00,2013-09-25 22:19:00,
2013-09-25 17:20:00,69.7,53.3,29.83,ESE,111,1.0,7.0,56,0.00,,---,0.00,VWS V14.00,2013-09-25 22:20:00,
2013-09-25 17:24:00,69.7,53.8,29.82,ENE,67,0.0,5.0,57,0.00,,---,0.00,VWS V14.00,2013-09-25 22:24:00,
2013-09-25 17:25:00,69.7,53.8,29.82,ENE,67,0.0,5.0,57,0.00,,---,0.00,VWS V14.00,2013-09-25 22:25:00,
2013-09-25 17:29:00,69.5,53.6,29.82,ENE,63,0.0,4.0,57,0.00,,---,0.00,VWS V14.00,2013-09-25 22:29:00,
2013-09-25 17:30:00,69.5,53.6,29.82,ENE,63,0.0,4.0,57,0.00,,---,0.00,VWS V14.00,2013-09-25 22:30:00,
2013-09-25 17:34:00,69.3,53.4,29.82,NE,56,2.0,3.0,57,0.00,,---,0.00,VWS V14.00,2013-09-25 22:34:00,
2013-09-25 17:35:00,69.3,53.4,29.82,NE,56,2.0,3.0,57,0.00,,---,0.00,VWS V14.00,2013-09-25 22:35:00,
2013-09-25 17:39:00,69.1,53.7,29.82,NE,55,4.0,5.0,58,0.00,,---,0.00,VWS V14.00,2013-09-25 22:39:00,
2013-09-25 17:40:00,69.1,53.7,29.82,NE,55,4.0,5.0,58,0.00,,---,0.00,VWS V14.00,2013-09-25 22:40:00,
2013-09-25 17:44:00,68.8,53.9,29.83,ENE,78,0.0,5.0,59,0.00,,---,0.00,VWS V14.00,2013-09-25 22:44:00,
2013-09-25 17:45:00,68.8,53.9,29.83,ENE,78,0.0,5.0,59,0.00,,---,0.00,VWS V14.00,2013-09-25 22:45:00,
2013-09-25 17:49:00,68.6,54.2,29.83,East,80,1.0,1.0,60,0.00,,---,0.00,VWS V14.00,2013-09-25 22:49:00,
2013-09-25 17:50:00,68.6,54.2,29.83,East,80,1.0,1.0,60,0.00,,---,0.00,VWS V14.00,2013-09-25 22:50:00,
2013-09-25 17:54:00,68.4,54.4,29.83,East,88,0.0,3.0,61,0.00,,---,0.00,VWS V14.00,2013-09-25 22:54:00,
2013-09-25 17:55:00,68.4,54.4,29.83,East,88,0.0,3.0,61,0.00,,---,0.00,VWS V14.00,2013-09-25 22:55:00,
2013-09-25 17:59:00,68.2,54.7,29.83,East,88,0.0,0.0,62,0.00,,---,0.00,VWS V14.00,2013-09-25 22:59:00,
2013-09-25 18:00:00,68.2,54.7,29.83,East,88,0.0,0.0,62,0.00,,---,0.00,VWS V14.00,2013-09-25 23:00:00,
2013-09-25 18:04:00,67.9,54.8,29.83,East,88,0.0,0.0,63,0.00,,---,0.00,VWS V14.00,2013-09-25 23:04:00,
2013-09-25 18:05:00,67.9,54.8,29.83,East,88,0.0,1.0,63,0.00,,---,0.00,VWS V14.00,2013-09-25 23:05:00,
2013-09-25 18:09:00,67.5,54.9,29.83,East,88,0.0,0.0,64,0.00,,---,0.00,VWS V14.00,2013-09-25 23:09:00,
2013-09-25 18:10:00,67.6,55.0,29.83,East,88,0.0,1.0,64,0.00,,---,0.00,VWS V14.00,2013-09-25 23:10:00,
2013-09-25 18:14:00,67.1,54.5,29.83,East,88,0.0,0.0,64,0.00,,---,0.00,VWS V14.00,2013-09-25 23:14:00,
2013-09-25 18:15:00,67.2,54.6,29.84,East,88,0.0,1.0,64,0.00,,---,0.00,VWS V14.00,2013-09-25 23:15:00,
2013-09-25 18:19:00,66.8,54.7,29.83,NNW,348,0.0,0.0,65,0.00,,---,0.00,VWS V14.00,2013-09-25 23:19:00,
2013-09-25 18:20:00,66.8,54.7,29.83,NNW,348,0.0,1.0,65,0.00,,---,0.00,VWS V14.00,2013-09-25 23:20:00,
2013-09-25 18:24:00,66.3,54.6,29.84,NNW,348,0.0,1.0,66,0.00,,---,0.00,VWS V14.00,2013-09-25 23:24:00,
2013-09-25 18:25:00,66.4,54.7,29.83,NNW,348,0.0,1.0,66,0.00,,---,0.00,VWS V14.00,2013-09-25 23:25:00,
2013-09-25 18:29:00,66.0,54.7,29.84,NNW,348,0.0,0.0,67,0.00,,---,0.00,VWS V14.00,2013-09-25 23:29:00,
2013-09-25 18:30:00,66.0,54.7,29.84,NNW,348,0.0,1.0,67,0.00,,---,0.00,VWS V14.00,2013-09-25 23:30:00,
2013-09-25 18:34:00,65.6,54.8,29.84,NNW,348,0.0,0.0,68,0.00,,---,0.00,VWS V14.00,2013-09-25 23:34:00,
2013-09-25 18:35:00,65.7,54.9,29.84,NNW,348,0.0,0.0,68,0.00,,---,0.00,VWS V14.00,2013-09-25 23:35:00,
2013-09-25 18:39:00,65.0,54.6,29.84,NNW,348,0.0,0.0,69,0.00,,---,0.00,VWS V14.00,2013-09-25 23:39:00,
2013-09-25 18:40:00,65.1,54.7,29.84,NNW,348,0.0,1.0,69,0.00,,---,0.00,VWS V14.00,2013-09-25 23:40:00,
2013-09-25 18:45:00,64.3,54.3,29.84,NNW,348,0.0,0.0,70,0.00,,---,0.00,VWS V14.00,2013-09-25 23:45:00,
2013-09-25 18:50:00,63.6,54.4,29.84,NNW,348,0.0,0.0,72,0.00,,---,0.00,VWS V14.00,2013-09-25 23:50:00,
2013-09-25 18:55:00,62.7,53.9,29.84,NNW,348,0.0,0.0,73,0.00,,---,0.00,VWS V14.00,2013-09-25 23:55:00,
2013-09-25 19:00:00,62.0,54.4,29.84,NNW,348,0.0,0.0,76,0.00,,---,0.00,VWS V14.00,2013-09-26 00:00:00,
2013-09-25 19:05:00,61.3,54.0,29.84,NNW,348,0.0,0.0,77,0.00,,---,0.00,VWS V14.00,2013-09-26 00:05:00,
2013-09-25 19:10:00,60.6,54.1,29.84,NNW,348,0.0,0.0,79,0.00,,---,0.00,VWS V14.00,2013-09-26 00:10:00,
2013-09-25 19:15:00,60.1,53.9,29.84,NNW,348,0.0,0.0,80,0.00,,---,0.00,VWS V14.00,2013-09-26 00:15:00,
2013-09-25 19:20:00,59.5,54.0,29.84,NNW,348,0.0,0.0,82,0.00,,---,0.00,VWS V14.00,2013-09-26 00:20:00,
2013-09-25 19:25:00,58.9,53.8,29.84,NNW,348,0.0,0.0,83,0.00,,---,0.00,VWS V14.00,2013-09-26 00:25:00,
2013-09-25 19:30:00,58.3,53.2,29.84,NNW,348,0.0,0.0,83,0.00,,---,0.00,VWS V14.00,2013-09-26 00:30:00,
2013-09-25 19:35:00,58.0,53.5,29.85,NNW,348,0.0,0.0,85,0.00,,---,0.00,VWS V14.00,2013-09-26 00:35:00,
2013-09-25 19:40:00,57.6,53.5,29.85,NNW,348,0.0,0.0,86,0.00,,---,0.00,VWS V14.00,2013-09-26 00:40:00,
2013-09-25 19:45:00,57.3,53.2,29.85,NNW,348,0.0,0.0,86,0.00,,---,0.00,VWS V14.00,2013-09-26 00:45:00,
2013-09-25 19:50:00,56.9,53.1,29.85,NNW,348,0.0,0.0,87,0.00,,---,0.00,VWS V14.00,2013-09-26 00:50:00,
2013-09-25 19:55:00,56.6,52.8,29.85,NNW,348,0.0,0.0,87,0.00,,---,0.00,VWS V14.00,2013-09-26 00:55:00,
2013-09-25 20:00:00,56.3,52.5,29.85,NNW,348,0.0,0.0,87,0.00,,---,0.00,VWS V14.00,2013-09-26 01:00:00,
2013-09-25 20:05:00,56.2,52.7,29.85,NNW,348,0.0,0.0,88,0.00,,---,0.00,VWS V14.00,2013-09-26 01:05:00,
2013-09-25 20:10:00,55.9,52.4,29.85,NNW,348,0.0,0.0,88,0.00,,---,0.00,VWS V14.00,2013-09-26 01:10:00,
2013-09-25 20:15:00,55.6,52.1,29.85,NNW,348,0.0,0.0,88,0.00,,---,0.00,VWS V14.00,2013-09-26 01:15:00,
2013-09-25 20:20:00,55.4,52.2,29.85,NNW,348,0.0,0.0,89,0.00,,---,0.00,VWS V14.00,2013-09-26 01:20:00,
2013-09-25 20:25:00,55.1,51.9,29.85,NNW,348,0.0,0.0,89,0.00,,---,0.00,VWS V14.00,2013-09-26 01:25:00,
2013-09-25 20:30:00,54.9,51.7,29.85,NNW,348,0.0,0.0,89,0.00,,---,0.00,VWS V14.00,2013-09-26 01:30:00,
2013-09-25 20:35:00,54.8,51.9,29.85,NNW,348,0.0,0.0,90,0.00,,---,0.00,VWS V14.00,2013-09-26 01:35:00,
2013-09-25 20:40:00,55.0,52.4,29.85,NNW,334,0.0,0.0,91,0.00,,---,0.00,VWS V14.00,2013-09-26 01:40:00,
2013-09-25 20:45:00,55.3,52.7,29.85,NNW,334,0.0,0.0,91,0.00,,---,0.00,VWS V14.00,2013-09-26 01:45:00,
2013-09-25 20:50:00,55.5,52.6,29.85,NNW,334,0.0,0.0,90,0.00,,---,0.00,VWS V14.00,2013-09-26 01:50:00,
2013-09-25 20:55:00,55.9,53.0,29.85,NNW,334,0.0,0.0,90,0.00,,---,0.00,VWS V14.00,2013-09-26 01:55:00,
2013-09-25 21:00:00,56.4,52.9,29.84,NNE,17,0.0,0.0,88,0.00,,---,0.00,VWS V14.00,2013-09-26 02:00:00,
2013-09-25 21:05:00,56.7,52.9,29.85,NNE,17,0.0,0.0,87,0.00,,---,0.00,VWS V14.00,2013-09-26 02:05:00,
2013-09-25 21:10:00,56.8,53.0,29.85,NNE,17,0.0,1.0,87,0.00,,---,0.00,VWS V14.00,2013-09-26 02:10:00,
2013-09-25 21:15:00,57.0,52.9,29.85,NNE,17,0.0,0.0,86,0.00,,---,0.00,VWS V14.00,2013-09-26 02:15:00,
2013-09-25 21:20:00,57.2,52.7,29.86,NNE,23,0.0,1.0,85,0.00,,---,0.00,VWS V14.00,2013-09-26 02:20:00,
2013-09-25 21:25:00,57.6,52.8,29.85,NE,56,0.0,0.0,84,0.00,,---,0.00,VWS V14.00,2013-09-26 02:25:00,
2013-09-25 21:30:00,58.0,52.9,29.85,ESE,118,0.0,0.0,83,0.00,,---,0.00,VWS V14.00,2013-09-26 02:30:00,
2013-09-25 21:35:00,58.1,53.0,29.85,ESE,118,0.0,0.0,83,0.00,,---,0.00,VWS V14.00,2013-09-26 02:35:00,
2013-09-25 21:40:00,57.9,52.8,29.86,ESE,123,0.0,0.0,83,0.00,,---,0.00,VWS V14.00,2013-09-26 02:40:00,
2013-09-25 21:45:00,57.7,52.6,29.85,ESE,123,0.0,0.0,83,0.00,,---,0.00,VWS V14.00,2013-09-26 02:45:00,
2013-09-25 21:50:00,57.5,52.4,29.86,ESE,123,0.0,1.0,83,0.00,,---,0.00,VWS V14.00,2013-09-26 02:50:00,
2013-09-25 21:55:00,57.3,52.2,29.86,ESE,123,0.0,1.0,83,0.00,,---,0.00,VWS V14.00,2013-09-26 02:55:00,
2013-09-25 21:56:00,57.2,52.1,29.86,ESE,123,0.0,0.0,83,0.00,,---,0.00,VWS V14.00,2013-09-26 02:56:00,
2013-09-25 22:00:00,57.0,51.9,29.86,ESE,123,0.0,0.0,83,0.00,,---,0.00,VWS V14.00,2013-09-26 03:00:00,
2013-09-25 22:01:00,56.9,52.1,29.85,ESE,123,0.0,0.0,84,0.00,,---,0.00,VWS V14.00,2013-09-26 03:01:00,
2013-09-25 22:05:00,56.7,51.9,29.85,ESE,123,0.0,1.0,84,0.00,,---,0.00,VWS V14.00,2013-09-26 03:05:00,
2013-09-25 22:06:00,56.7,51.9,29.85,ESE,123,0.0,0.0,84,0.00,,---,0.00,VWS V14.00,2013-09-26 03:06:00,
2013-09-25 22:10:00,56.5,51.7,29.85,ESE,123,0.0,0.0,84,0.00,,---,0.00,VWS V14.00,2013-09-26 03:10:00,
2013-09-25 22:11:00,56.5,51.7,29.85,ESE,123,0.0,0.0,84,0.00,,---,0.00,VWS V14.00,2013-09-26 03:11:00,
2013-09-25 22:15:00,56.3,51.5,29.85,ESE,123,0.0,0.0,84,0.00,,---,0.00,VWS V14.00,2013-09-26 03:15:00,
2013-09-25 22:16:00,56.2,51.4,29.86,SE,126,2.0,3.0,84,0.00,,---,0.00,VWS V14.00,2013-09-26 03:16:00,
2013-09-25 22:20:00,56.2,51.8,29.86,SE,126,0.0,3.0,85,0.00,,---,0.00,VWS V14.00,2013-09-26 03:20:00,
2013-09-25 22:21:00,56.1,51.3,29.86,SE,126,0.0,1.0,84,0.00,,---,0.00,VWS V14.00,2013-09-26 03:21:00,
2013-09-25 22:25:00,55.9,51.5,29.86,SE,126,0.0,1.0,85,0.00,,---,0.00,VWS V14.00,2013-09-26 03:25:00,
2013-09-25 22:26:00,55.9,51.5,29.86,SE,126,0.0,0.0,85,0.00,,---,0.00,VWS V14.00,2013-09-26 03:26:00,
2013-09-25 22:30:00,55.8,51.4,29.86,SE,126,0.0,0.0,85,0.00,,---,0.00,VWS V14.00,2013-09-26 03:30:00,
2013-09-25 22:31:00,55.6,51.2,29.86,SE,125,0.0,0.0,85,0.00,,---,0.00,VWS V14.00,2013-09-26 03:31:00,
2013-09-25 22:35:00,55.4,51.0,29.86,SE,126,0.0,0.0,85,0.00,,---,0.00,VWS V14.00,2013-09-26 03:35:00,
2013-09-25 22:36:00,55.3,50.9,29.86,SE,126,0.0,0.0,85,0.00,,---,0.00,VWS V14.00,2013-09-26 03:36:00,
2013-09-25 22:40:00,55.0,50.6,29.86,SE,126,0.0,0.0,85,0.00,,---,0.00,VWS V14.00,2013-09-26 03:40:00,
2013-09-25 22:41:00,54.9,50.5,29.86,SE,126,0.0,0.0,85,0.00,,---,0.00,VWS V14.00,2013-09-26 03:41:00,
2013-09-25 22:45:00,54.7,50.6,29.86,SE,126,0.0,0.0,86,0.00,,---,0.00,VWS V14.00,2013-09-26 03:45:00,
2013-09-25 22:46:00,54.6,50.5,29.86,SE,125,0.0,0.0,86,0.00,,---,0.00,VWS V14.00,2013-09-26 03:46:00,
2013-09-25 22:50:00,54.4,50.3,29.86,SE,125,0.0,0.0,86,0.00,,---,0.00,VWS V14.00,2013-09-26 03:50:00,
2013-09-25 22:51:00,54.4,50.6,29.86,SE,126,0.0,0.0,87,0.00,,---,0.00,VWS V14.00,2013-09-26 03:51:00,
2013-09-25 22:55:00,54.5,50.7,29.87,SE,126,0.0,0.0,87,0.00,,---,0.00,VWS V14.00,2013-09-26 03:55:00,
2013-09-25 22:56:00,54.5,50.7,29.87,SE,126,0.0,0.0,87,0.00,,---,0.00,VWS V14.00,2013-09-26 03:56:00,
2013-09-25 23:00:00,54.4,50.6,29.87,SE,126,0.0,1.0,87,0.00,,---,0.00,VWS V14.00,2013-09-26 04:00:00,
2013-09-25 23:01:00,54.3,50.5,29.87,SE,125,0.0,0.0,87,0.00,,---,0.00,VWS V14.00,2013-09-26 04:01:00,
2013-09-25 23:02:00,54.2,50.4,29.87,SE,126,0.0,0.0,87,0.00,,---,0.00,VWS V14.00,2013-09-26 04:02:00,
2013-09-25 23:05:00,54.1,50.3,29.87,SE,126,0.0,1.0,87,0.00,,---,0.00,VWS V14.00,2013-09-26 04:05:00,
2013-09-25 23:07:00,53.9,50.1,29.87,SE,125,0.0,0.0,87,0.00,,---,0.00,VWS V14.00,2013-09-26 04:07:00,
2013-09-25 23:10:00,53.7,50.2,29.86,SE,125,0.0,0.0,88,0.00,,---,0.00,VWS V14.00,2013-09-26 04:10:00,
2013-09-25 23:12:00,53.5,50.0,29.86,SE,126,0.0,0.0,88,0.00,,---,0.00,VWS V14.00,2013-09-26 04:12:00,
2013-09-25 23:15:00,53.4,49.9,29.87,SE,125,0.0,0.0,88,0.00,,---,0.00,VWS V14.00,2013-09-26 04:15:00,
2013-09-25 23:17:00,53.2,50.0,29.86,SE,125,0.0,0.0,89,0.00,,---,0.00,VWS V14.00,2013-09-26 04:17:00,
2013-09-25 23:20:00,53.1,50.0,29.86,SE,126,0.0,0.0,89,0.00,,---,0.00,VWS V14.00,2013-09-26 04:20:00,
2013-09-25 23:22:00,53.0,49.8,29.86,SE,126,0.0,0.0,89,0.00,,---,0.00,VWS V14.00,2013-09-26 04:22:00,
2013-09-25 23:25:00,52.8,49.7,29.86,SE,125,0.0,0.0,89,0.00,,---,0.00,VWS V14.00,2013-09-26 04:25:00,
2013-09-25 23:27:00,52.7,49.5,29.86,SE,126,0.0,0.0,89,0.00,,---,0.00,VWS V14.00,2013-09-26 04:27:00,
2013-09-25 23:30:00,52.6,49.5,29.86,SE,125,0.0,0.0,89,0.00,,---,0.00,VWS V14.00,2013-09-26 04:30:00,
2013-09-25 23:32:00,52.4,49.6,29.87,SE,126,0.0,0.0,90,0.00,,---,0.00,VWS V14.00,2013-09-26 04:32:00,
2013-09-25 23:35:00,52.3,49.5,29.86,SE,125,0.0,0.0,90,0.00,,---,0.00,VWS V14.00,2013-09-26 04:35:00,
2013-09-25 23:37:00,52.0,49.2,29.87,SE,126,0.0,0.0,90,0.00,,---,0.00,VWS V14.00,2013-09-26 04:37:00,
2013-09-25 23:40:00,51.9,49.1,29.87,SE,126,0.0,0.0,90,0.00,,---,0.00,VWS V14.00,2013-09-26 04:40:00,
2013-09-25 23:42:00,51.7,48.9,29.86,SE,125,0.0,0.0,90,0.00,,---,0.00,VWS V14.00,2013-09-26 04:42:00,
2013-09-25 23:45:00,51.6,48.8,29.86,SE,126,0.0,0.0,90,0.00,,---,0.00,VWS V14.00,2013-09-26 04:45:00,
2013-09-25 23:47:00,51.5,49.0,29.87,SE,126,0.0,0.0,91,0.00,,---,0.00,VWS V14.00,2013-09-26 04:47:00,
2013-09-25 23:50:00,51.5,49.0,29.86,SE,126,0.0,0.0,91,0.00,,---,0.00,VWS V14.00,2013-09-26 04:50:00,
2013-09-25 23:52:00,51.5,49.3,29.86,SE,126,0.0,0.0,92,0.00,,---,0.00,VWS V14.00,2013-09-26 04:52:00,
2013-09-25 23:55:00,51.4,49.2,29.86,SE,126,0.0,0.0,92,0.00,,---,0.00,VWS V14.00,2013-09-26 04:55:00,
2013-09-25 23:58:00,51.3,48.8,29.87,SE,126,0.0,0.0,91,0.00,,---,0.00,VWS V14.00,2013-09-26 04:58:00,